Reading, United Kingdom
Current Conditions -  °F | °C
As of 7:50 PM on Wednesday 26 Nov 2014 (Local Time) from EGUB Reporting Station
Overcast Overcast  
Wind Chill:   Ceiling: 200
Heat Index:   Visibility: 0.46mi
Dew Point:   Wind: 2mph
Humidity: 100%   Direction: 80°E
Pressure: 29.77"   Gusts: NA
Location:  51.45°N, 0.99°W
Report Text: EGUB 261950Z AUTO 08002KT 0750 // OVC002/// 08/08 Q1008
Loading
Personal Weather Stations






























Interactive Weather Map New forecast layout! Learn more

10-Day Weather Forecast

Advertisements
Track Severe Weather on mobile